ENQO weather

Oseberg East Platform
Norway

Public forecast

Using degrees Celsius for public forecast. Weather courtesy of forecast.io.

METAR (pilot weather report)

Closest report is Oseberg A Platform, 12.9 nm (23.9 km) SSW. Retrieved 2019/05/25 05:20 UTC (0 seconds ago):

ENOA 250520Z VRB02KT 2000 -SHRA SCT005 OVC015 09/08 Q1011 W///S/

TAF (pilot weather forecast)

Closest forecast is Oseberg A Platform, 12.9 nm (23.9 km) SSW. Retrieved 2019/05/25 03:57 UTC (1 hour ago):

TAF TAF ENOA 250200Z 2503/2603 VRB08KT 9999 FEW015 BKN025 TEMPO 2503/2603 SHRA BKN014TCU BECMG 2514/2516 34020KT